Time;durP1;ratioP1;P1;durP2;ratioP2;P2;SDS_P1;SDS_P2;PMS_P1;PMS_P2;Temp;Humidity;BMP_temperature;BMP_pressure;BME280_temperature;BME280_humidity;BME280_pressure;Samples;Min_cycle;Max_cycle;Signal;HPM_P1;HPM_P2
2023/03/06 00:00:42;;;;;;;7.73;3.40;;;2.70;99.90;;;;;;5047567;28;20210;-74
2023/03/06 00:03:08;;;;;;;8.37;3.73;;;2.60;99.90;;;;;;5057932;28;20698;-75
2023/03/06 00:05:34;;;;;;;6.23;2.83;;;2.70;99.90;;;;;;5048192;28;20309;-74
2023/03/06 00:07:59;;;;;;;4.27;2.80;;;2.60;99.90;;;;;;5046793;28;20708;-75
2023/03/06 00:10:29;;;;;;;5.83;3.13;;;2.60;99.90;;;;;;5031938;28;20206;-74
2023/03/06 00:12:58;;;;;;;5.37;3.33;;;2.60;99.90;;;;;;5050512;28;20203;-75
2023/03/06 00:15:25;;;;;;;6.10;3.30;;;2.50;99.90;;;;;;5031849;28;20208;-73
2023/03/06 00:17:52;;;;;;;9.10;3.13;;;2.30;99.90;;;;;;5034339;28;20555;-73
2023/03/06 00:20:19;;;;;;;6.97;3.33;;;2.40;99.90;;;;;;5045373;28;20228;-74
2023/03/06 00:22:45;;;;;;;4.33;3.03;;;2.50;99.90;;;;;;5048156;28;20275;-75
2023/03/06 00:25:17;;;;;;;6.20;2.70;;;2.50;99.90;;;;;;5037840;28;20207;-73
2023/03/06 00:27:43;;;;;;;8.30;3.60;;;2.40;99.90;;;;;;5033927;28;20210;-75
2023/03/06 00:30:14;;;;;;;6.73;2.90;;;2.30;99.90;;;;;;5031984;28;20203;-73
2023/03/06 00:32:40;;;;;;;6.40;3.27;;;2.30;99.90;;;;;;5042884;28;20215;-75
2023/03/06 00:35:06;;;;;;;7.07;4.00;;;2.40;99.90;;;;;;5050026;28;20195;-74
2023/03/06 00:37:32;;;;;;;5.03;3.77;;;2.30;99.90;;;;;;5032358;28;20205;-73
2023/03/06 00:39:57;;;;;;;6.10;3.63;;;2.40;99.90;;;;;;5046116;28;20875;-75
2023/03/06 00:42:23;;;;;;;8.00;4.27;;;2.40;99.90;;;;;;5030631;28;20213;-75
2023/03/06 00:44:49;;;;;;;6.37;4.00;;;2.40;99.90;;;;;;5046658;28;20678;-74
2023/03/06 00:47:18;;;;;;;8.57;4.27;;;2.30;99.90;;;;;;5047812;28;20231;-74
2023/03/06 00:49:44;;;;;;;7.73;4.93;;;2.30;99.90;;;;;;5033888;28;20740;-74
2023/03/06 00:52:10;;;;;;;8.83;4.90;;;2.20;99.90;;;;;;5046115;28;20203;-74
2023/03/06 00:54:36;;;;;;;6.47;4.47;;;2.10;99.90;;;;;;5047601;28;20204;-75
2023/03/06 00:57:01;;;;;;;7.83;4.30;;;2.30;99.90;;;;;;5033133;28;20717;-74
2023/03/06 00:59:27;;;;;;;8.20;4.63;;;2.30;99.90;;;;;;5044139;28;20222;-73
2023/03/06 01:01:53;;;;;;;7.83;4.67;;;2.40;99.90;;;;;;5033386;28;20183;-74
2023/03/06 01:04:19;;;;;;;6.30;4.23;;;2.30;99.90;;;;;;5047310;28;20211;-74
2023/03/06 01:06:45;;;;;;;7.47;4.30;;;2.30;99.90;;;;;;5050241;28;20239;-74
2023/03/06 01:09:11;;;;;;;7.93;4.97;;;2.30;99.90;;;;;;5050662;28;20261;-74
2023/03/06 01:11:37;;;;;;;6.40;5.07;;;2.20;99.90;;;;;;5049992;28;20206;-73
2023/03/06 01:14:03;;;;;;;7.97;4.80;;;2.30;99.90;;;;;;5050715;28;20643;-71
2023/03/06 01:16:28;;;;;;;6.23;4.50;;;2.20;99.90;;;;;;5032276;28;20298;-75
2023/03/06 01:18:54;;;;;;;7.30;4.30;;;2.20;99.90;;;;;;5050224;28;20283;-74
2023/03/06 01:21:20;;;;;;;8.10;4.70;;;2.30;99.90;;;;;;5050466;28;20230;-74
2023/03/06 01:23:46;;;;;;;5.83;4.33;;;2.20;99.90;;;;;;5030724;28;20211;-73
2023/03/06 01:26:12;;;;;;;7.70;4.57;;;2.20;99.90;;;;;;5031483;28;20726;-74
2023/03/06 01:28:39;;;;;;;7.43;5.00;;;2.20;99.90;;;;;;5050579;28;20236;-73
2023/03/06 01:31:06;;;;;;;6.77;4.73;;;2.20;99.90;;;;;;5047660;28;20307;-73
2023/03/06 01:33:33;;;;;;;8.80;5.10;;;2.20;99.90;;;;;;5048576;28;20227;-75
2023/03/06 01:35:59;;;;;;;6.80;4.80;;;2.20;99.90;;;;;;5050119;28;20721;-74
2023/03/06 01:38:24;;;;;;;8.13;5.07;;;2.30;99.90;;;;;;5032118;28;20209;-74
2023/03/06 01:40:50;;;;;;;8.23;5.60;;;2.30;99.90;;;;;;5049681;28;20541;-74
2023/03/06 01:43:27;;;;;;;7.17;4.87;;;2.30;99.90;;;;;;5034464;28;20610;-73
2023/03/06 01:46:29;;;;;;;8.20;5.20;;;2.40;99.90;;;;;;5048573;28;20261;-73
2023/03/06 01:48:55;;;;;;;7.17;5.30;;;2.50;99.90;;;;;;5031221;28;20195;-74
2023/03/06 01:51:23;;;;;;;9.83;6.33;;;2.50;99.90;;;;;;5051876;28;20211;-73
2023/03/06 01:53:51;;;;;;;9.27;6.50;;;2.40;99.90;;;;;;5051268;28;20196;-74
2023/03/06 01:56:17;;;;;;;9.67;6.03;;;2.50;99.90;;;;;;5044755;28;20756;-74
2023/03/06 01:58:43;;;;;;;12.07;7.03;;;2.50;99.90;;;;;;5032648;28;20180;-73
2023/03/06 02:01:14;;;;;;;8.20;6.17;;;2.50;99.90;;;;;;5045319;28;20228;-73
2023/03/06 02:03:41;;;;;;;8.67;6.10;;;2.50;99.90;;;;;;5045831;28;20212;-74
2023/03/06 02:06:07;;;;;;;10.00;6.73;;;2.50;99.90;;;;;;5044949;28;20207;-73
2023/03/06 02:08:33;;;;;;;9.63;6.50;;;2.60;99.90;;;;;;5030687;28;20212;-74
2023/03/06 02:11:07;;;;;;;7.97;5.90;;;2.60;99.90;;;;;;5042303;28;20179;-74
2023/03/06 02:13:34;;;;;;;10.03;6.00;;;2.60;99.90;;;;;;5047373;28;20184;-74
2023/03/06 02:16:00;;;;;;;12.33;6.40;;;2.70;99.90;;;;;;5032304;28;20670;-74
2023/03/06 02:18:27;;;;;;;8.47;6.27;;;2.70;99.90;;;;;;5041229;28;20228;-74
2023/03/06 02:20:56;;;;;;;10.40;6.30;;;2.70;99.90;;;;;;5042102;28;20272;-73
2023/03/06 02:23:58;;;;;;;11.77;5.97;;;2.70;99.90;;;;;;5030561;28;20311;-72
2023/03/06 02:26:26;;;;;;;9.83;6.23;;;2.70;99.90;;;;;;5044260;28;20222;-74
2023/03/06 02:28:52;;;;;;;10.80;6.10;;;2.70;99.90;;;;;;5044872;28;20188;-74
2023/03/06 02:31:25;;;;;;;11.00;6.60;;;2.70;99.90;;;;;;5041703;28;20216;-74
2023/03/06 02:34:13;;;;;;;9.50;6.17;;;2.70;99.90;;;;;;5034991;28;20238;-72
2023/03/06 02:36:46;;;;;;;9.83;6.50;;;2.70;99.90;;;;;;5051445;28;20682;-74
2023/03/06 02:39:12;;;;;;;8.87;5.93;;;2.70;99.90;;;;;;5047759;28;20208;-74
2023/03/06 02:41:38;;;;;;;8.23;5.63;;;2.70;99.90;;;;;;5049117;28;20210;-73
2023/03/06 02:44:03;;;;;;;10.23;5.70;;;2.70;99.90;;;;;;5052241;28;20207;-73
2023/03/06 02:46:29;;;;;;;11.70;5.60;;;2.70;99.90;;;;;;5049214;28;20268;-74
2023/03/06 02:48:55;;;;;;;11.10;5.60;;;2.70;99.90;;;;;;5049616;28;20666;-74
2023/03/06 02:51:20;;;;;;;8.37;5.43;;;2.70;99.90;;;;;;5044768;28;20204;-74
2023/03/06 02:53:46;;;;;;;7.77;5.07;;;2.70;99.90;;;;;;5051143;28;20256;-74
2023/03/06 02:56:12;;;;;;;9.80;5.47;;;2.80;99.90;;;;;;5035797;28;20692;-72
2023/03/06 02:58:37;;;;;;;7.37;4.87;;;2.80;99.90;;;;;;5051130;28;20261;-74
2023/03/06 03:01:03;;;;;;;8.43;5.03;;;2.90;99.90;;;;;;5048213;28;20686;-74
2023/03/06 03:03:29;;;;;;;7.13;5.10;;;2.90;99.90;;;;;;5033134;28;20216;-74
2023/03/06 03:05:55;;;;;;;12.87;4.50;;;2.90;99.90;;;;;;5047529;28;20213;-73
2023/03/06 03:08:21;;;;;;;11.17;4.40;;;2.90;99.90;;;;;;5053376;28;20241;-74
2023/03/06 03:10:46;;;;;;;7.47;4.00;;;2.90;99.90;;;;;;5036032;28;20238;-74
2023/03/06 03:13:12;;;;;;;6.67;4.27;;;2.90;99.90;;;;;;5045606;28;20208;-74
2023/03/06 03:15:37;;;;;;;7.13;3.97;;;2.90;99.90;;;;;;5043967;28;20339;-74
2023/03/06 03:18:03;;;;;;;10.13;4.37;;;2.90;99.90;;;;;;5035491;28;20776;-74
2023/03/06 03:20:29;;;;;;;8.07;3.97;;;2.90;99.90;;;;;;5046668;28;20589;-74
2023/03/06 03:22:55;;;;;;;8.33;4.37;;;3.00;99.90;;;;;;5034905;28;20207;-75
2023/03/06 03:25:22;;;;;;;6.60;4.00;;;3.00;99.90;;;;;;5043294;28;20201;-75
2023/03/06 03:27:48;;;;;;;6.30;3.90;;;3.10;99.90;;;;;;5031256;28;20204;-75
2023/03/06 03:30:14;;;;;;;8.00;4.30;;;3.10;99.90;;;;;;5049535;28;20615;-75
2023/03/06 03:32:39;;;;;;;8.87;4.33;;;3.10;99.90;;;;;;5033942;28;20219;-74
2023/03/06 03:35:08;;;;;;;6.13;3.83;;;3.10;99.90;;;;;;5045429;28;20197;-73
2023/03/06 03:37:34;;;;;;;7.00;3.57;;;3.10;99.90;;;;;;5044721;28;20176;-74
2023/03/06 03:40:01;;;;;;;5.97;3.60;;;3.10;99.90;;;;;;5051387;28;20268;-74
2023/03/06 03:42:26;;;;;;;7.73;3.73;;;3.10;99.90;;;;;;5046638;28;20220;-74
2023/03/06 03:44:52;;;;;;;7.47;3.63;;;3.10;99.90;;;;;;5047020;28;20214;-74
2023/03/06 03:47:17;;;;;;;5.93;3.77;;;3.10;99.90;;;;;;5042536;28;20271;-74
2023/03/06 03:49:43;;;;;;;6.97;3.57;;;3.10;99.90;;;;;;5034488;28;20203;-74
2023/03/06 03:52:09;;;;;;;6.20;3.50;;;3.10;99.90;;;;;;5049717;28;20201;-74
2023/03/06 03:54:34;;;;;;;7.13;3.67;;;3.10;99.90;;;;;;5034973;28;20263;-75
2023/03/06 03:57:00;;;;;;;6.77;3.47;;;3.10;99.90;;;;;;5042402;28;21041;-74
2023/03/06 03:59:26;;;;;;;7.03;3.07;;;3.10;99.90;;;;;;5040922;28;20750;-74
2023/03/06 04:01:51;;;;;;;6.97;3.50;;;3.10;99.90;;;;;;5059498;28;20176;-74
2023/03/06 04:04:17;;;;;;;6.80;3.40;;;3.10;99.90;;;;;;5052418;28;20247;-74
2023/03/06 04:06:43;;;;;;;6.57;3.93;;;3.20;99.90;;;;;;5049835;28;20207;-74
2023/03/06 04:09:08;;;;;;;7.93;4.30;;;3.10;99.90;;;;;;5046636;28;20252;-75
2023/03/06 04:11:34;;;;;;;6.60;3.63;;;3.10;99.90;;;;;;5065927;28;20235;-74
2023/03/06 04:14:00;;;;;;;4.57;3.57;;;3.00;99.90;;;;;;5049499;28;20204;-75
2023/03/06 04:16:25;;;;;;;6.23;3.67;;;2.90;99.90;;;;;;5063014;28;20207;-75
2023/03/06 04:18:51;;;;;;;4.93;3.20;;;2.90;99.90;;;;;;5036950;28;20282;-75
2023/03/06 04:21:16;;;;;;;4.30;2.83;;;2.80;99.90;;;;;;5058583;28;20282;-75
2023/03/06 04:23:43;;;;;;;4.07;3.17;;;2.90;99.90;;;;;;5053974;28;20226;-75
2023/03/06 04:26:09;;;;;;;5.23;2.90;;;2.80;99.90;;;;;;5063995;28;20195;-75
2023/03/06 04:28:34;;;;;;;3.67;3.20;;;2.80;99.90;;;;;;5057621;28;20597;-76
2023/03/06 04:31:00;;;;;;;3.27;2.50;;;2.70;99.90;;;;;;5033312;28;20211;-76
2023/03/06 04:33:26;;;;;;;3.53;2.50;;;2.70;99.90;;;;;;5055016;28;20208;-75
2023/03/06 04:35:51;;;;;;;2.93;2.60;;;2.60;99.90;;;;;;5038432;28;20735;-75
2023/03/06 04:38:17;;;;;;;5.03;2.70;;;2.60;99.90;;;;;;5049043;28;20219;-75
2023/03/06 04:40:43;;;;;;;3.67;2.60;;;2.60;99.90;;;;;;5047233;28;20232;-75
2023/03/06 04:43:09;;;;;;;3.50;2.70;;;2.70;99.90;;;;;;5048286;28;20214;-76
2023/03/06 04:48:04;;;;;;;3.67;2.50;;;2.60;99.90;;;;;;5065885;28;20292;-75
2023/03/06 04:50:32;;;;;;;3.00;2.50;;;2.60;99.90;;;;;;5068257;28;20246;-76
2023/03/06 04:53:02;;;;;;;4.10;2.40;;;2.60;99.90;;;;;;5066890;28;20556;-76
2023/03/06 04:55:28;;;;;;;4.03;2.70;;;2.60;99.90;;;;;;5055513;28;20252;-76
2023/03/06 04:57:54;;;;;;;3.43;2.53;;;2.60;99.90;;;;;;5063134;28;20242;-76
2023/03/06 05:00:23;;;;;;;5.13;2.40;;;2.60;99.90;;;;;;5062433;28;20215;-76
2023/03/06 05:02:49;;;;;;;4.63;2.60;;;2.60;99.90;;;;;;5061975;28;20210;-76
2023/03/06 05:05:17;;;;;;;3.80;2.47;;;2.60;99.90;;;;;;5052776;28;20207;-77
2023/03/06 05:07:43;;;;;;;3.23;2.67;;;2.60;99.90;;;;;;5058869;28;20719;-75
2023/03/06 05:10:14;;;;;;;3.77;2.27;;;2.60;99.90;;;;;;5064109;28;20296;-76
2023/03/06 05:12:40;;;;;;;2.87;2.17;;;2.60;99.90;;;;;;5041804;28;20207;-75
2023/03/06 05:15:07;;;;;;;3.17;2.10;;;2.60;99.90;;;;;;5058895;28;20211;-76
2023/03/06 05:17:33;;;;;;;2.93;2.63;;;2.60;99.90;;;;;;5059883;28;20294;-76
2023/03/06 05:19:58;;;;;;;2.53;2.33;;;2.60;99.90;;;;;;5042751;28;20274;-76
2023/03/06 05:22:24;;;;;;;2.80;2.33;;;2.60;99.90;;;;;;5063413;28;20196;-76
2023/03/06 05:24:50;;;;;;;2.70;2.37;;;2.60;99.90;;;;;;5046886;28;20210;-77
2023/03/06 05:27:15;;;;;;;3.40;2.30;;;2.60;99.90;;;;;;5058330;28;20738;-76
2023/03/06 05:29:41;;;;;;;2.87;2.20;;;2.60;99.90;;;;;;5045075;28;20694;-77
2023/03/06 05:32:07;;;;;;;2.70;2.17;;;2.50;99.90;;;;;;5061623;28;20187;-77
2023/03/06 05:34:33;;;;;;;3.30;2.40;;;2.50;99.90;;;;;;5060479;28;20178;-78
2023/03/06 05:37:00;;;;;;;3.37;2.63;;;2.50;99.90;;;;;;5058324;28;20235;-78
2023/03/06 05:39:27;;;;;;;3.77;2.53;;;2.50;99.90;;;;;;5060565;28;20213;-76
2023/03/06 05:41:53;;;;;;;6.20;2.83;;;2.50;99.90;;;;;;5057739;28;20203;-77
2023/03/06 05:44:18;;;;;;;4.20;2.97;;;2.40;99.90;;;;;;5068319;28;20222;-77
2023/03/06 05:46:44;;;;;;;3.13;2.53;;;2.50;99.90;;;;;;5045255;28;20619;-76
2023/03/06 05:49:10;;;;;;;3.93;2.47;;;2.50;99.90;;;;;;5055143;28;20204;-77
2023/03/06 05:51:35;;;;;;;3.17;2.67;;;2.50;99.90;;;;;;5042469;28;20222;-75
2023/03/06 05:54:01;;;;;;;4.23;3.10;;;2.50;99.90;;;;;;5059653;28;20203;-77
2023/03/06 05:56:27;;;;;;;3.70;2.90;;;2.50;99.90;;;;;;5042325;28;20220;-78
2023/03/06 05:58:52;;;;;;;6.73;3.70;;;2.50;99.90;;;;;;5048191;28;20676;-76
2023/03/06 06:01:19;;;;;;;3.80;2.90;;;2.40;99.90;;;;;;5045989;28;20220;-76
2023/03/06 06:03:45;;;;;;;5.03;3.57;;;2.40;99.90;;;;;;5058523;28;20239;-74
2023/03/06 06:06:13;;;;;;;3.83;2.40;;;2.40;99.90;;;;;;5047293;28;20722;-77
2023/03/06 06:08:39;;;;;;;5.50;3.20;;;2.50;99.90;;;;;;5065604;28;20214;-78
2023/03/06 06:11:08;;;;;;;4.23;3.30;;;2.40;99.90;;;;;;5061267;28;20178;-78
2023/03/06 06:13:34;;;;;;;5.53;3.27;;;2.50;99.90;;;;;;5050468;28;20176;-78
2023/03/06 06:16:06;;;;;;;6.27;3.40;;;2.50;99.90;;;;;;5078765;28;20297;-78
2023/03/06 06:18:31;;;;;;;4.60;3.20;;;2.40;99.90;;;;;;5060450;28;20210;-78
2023/03/06 06:20:57;;;;;;;3.73;2.80;;;2.30;99.90;;;;;;5061847;28;20199;-79
2023/03/06 06:23:23;;;;;;;5.00;3.43;;;2.30;99.90;;;;;;5045668;28;20223;-79
2023/03/06 06:25:49;;;;;;;4.03;2.43;;;2.30;99.90;;;;;;5063481;28;20713;-78
2023/03/06 06:28:15;;;;;;;3.40;3.10;;;2.30;99.90;;;;;;5062384;28;20206;-80
2023/03/06 06:30:41;;;;;;;4.40;3.13;;;2.30;99.90;;;;;;5047496;28;20211;-77
2023/03/06 06:33:06;;;;;;;6.37;3.47;;;2.30;99.90;;;;;;5069854;28;20237;-77
2023/03/06 06:35:35;;;;;;;4.90;3.43;;;2.40;99.90;;;;;;5047127;28;20265;-79
2023/03/06 06:38:01;;;;;;;4.57;2.77;;;2.40;99.90;;;;;;5069310;28;20181;-78
2023/03/06 06:40:28;;;;;;;4.50;2.87;;;2.40;99.90;;;;;;5063115;28;20175;-78
2023/03/06 06:42:54;;;;;;;4.97;3.37;;;2.50;99.90;;;;;;5065145;28;20206;-79
2023/03/06 06:45:19;;;;;;;3.23;2.47;;;2.50;99.90;;;;;;5048667;28;20696;-78
2023/03/06 06:47:48;;;;;;;5.27;3.17;;;2.50;99.90;;;;;;5064337;28;20265;-79
2023/03/06 06:50:14;;;;;;;4.40;2.97;;;2.60;99.90;;;;;;5061911;28;20221;-78
2023/03/06 06:52:40;;;;;;;5.30;2.70;;;2.60;99.90;;;;;;5060516;28;20651;-78
2023/03/06 06:55:06;;;;;;;2.40;2.20;;;2.60;99.90;;;;;;5083517;28;20265;-78
2023/03/06 06:57:32;;;;;;;6.87;2.80;;;2.60;99.90;;;;;;5049091;28;20211;-77
2023/03/06 06:59:57;;;;;;;5.90;3.10;;;2.70;99.90;;;;;;5080153;28;20609;-78
2023/03/06 07:02:23;;;;;;;2.80;2.47;;;2.50;99.90;;;;;;5059187;28;20608;-79
2023/03/06 07:04:49;;;;;;;3.00;2.27;;;2.60;99.90;;;;;;5069305;28;20619;-78
2023/03/06 07:07:15;;;;;;;3.63;2.70;;;2.60;99.90;;;;;;5067568;28;20298;-78
2023/03/06 07:09:40;;;;;;;4.73;3.07;;;2.60;99.90;;;;;;5047509;28;20272;-77
2023/03/06 07:12:07;;;;;;;5.17;2.83;;;2.60;99.90;;;;;;5050109;28;20199;-79
2023/03/06 07:14:33;;;;;;;3.07;2.50;;;2.70;99.90;;;;;;5057996;28;20221;-79
2023/03/06 07:16:58;;;;;;;4.83;3.07;;;2.60;99.90;;;;;;5085163;28;20255;-77
2023/03/06 07:19:24;;;;;;;3.90;2.43;;;2.50;99.90;;;;;;5068532;28;20177;-78
2023/03/06 07:21:50;;;;;;;3.70;2.40;;;2.60;99.90;;;;;;5063372;28;20221;-78
2023/03/06 07:24:15;;;;;;;2.80;2.13;;;2.60;99.90;;;;;;5069882;28;20225;-78
2023/03/06 07:26:46;;;;;;;5.63;2.63;;;2.60;99.90;;;;;;5088866;28;20281;-77
2023/03/06 07:29:11;;;;;;;2.73;1.83;;;2.60;99.90;;;;;;5055181;28;20182;-77
2023/03/06 07:31:37;;;;;;;7.47;2.47;;;2.70;99.90;;;;;;5068990;28;20184;-78
2023/03/06 07:34:03;;;;;;;4.03;2.60;;;2.80;99.90;;;;;;5065611;28;20203;-75
2023/03/06 07:36:28;;;;;;;3.97;2.80;;;2.80;99.90;;;;;;5061392;28;20227;-77
2023/03/06 07:38:54;;;;;;;2.63;2.23;;;2.80;99.90;;;;;;5051256;28;20202;-77
2023/03/06 07:41:19;;;;;;;5.63;2.77;;;2.90;99.90;;;;;;5067812;28;20686;-77
2023/03/06 07:43:45;;;;;;;5.37;2.50;;;3.00;99.90;;;;;;5048846;28;20580;-77
2023/03/06 07:46:13;;;;;;;5.37;3.00;;;3.00;99.90;;;;;;5052117;28;20215;-77
2023/03/06 07:48:39;;;;;;;3.23;2.57;;;3.10;99.90;;;;;;5064327;28;20207;-77
2023/03/06 07:51:07;;;;;;;4.40;2.23;;;3.10;99.90;;;;;;5067446;28;20642;-76
2023/03/06 07:53:33;;;;;;;4.30;2.43;;;3.10;99.90;;;;;;5069204;28;20231;-78
2023/03/06 07:56:00;;;;;;;4.37;3.33;;;3.20;99.90;;;;;;5058907;28;20197;-77
2023/03/06 07:58:26;;;;;;;4.70;3.20;;;3.30;99.90;;;;;;5066536;28;20177;-76
2023/03/06 08:00:52;;;;;;;3.90;3.10;;;3.30;99.90;;;;;;5072411;28;20222;-77
2023/03/06 08:03:18;;;;;;;3.07;2.77;;;3.30;99.90;;;;;;5085488;28;20235;-77
2023/03/06 08:05:44;;;;;;;5.03;3.00;;;3.10;99.90;;;;;;5070831;28;20221;-77
2023/03/06 08:08:10;;;;;;;5.20;3.47;;;3.20;99.90;;;;;;5065034;28;20178;-78
2023/03/06 08:10:36;;;;;;;3.87;3.07;;;3.20;99.90;;;;;;5067771;28;20236;-77
2023/03/06 08:13:01;;;;;;;4.73;2.80;;;3.40;99.90;;;;;;5068492;28;20213;-77
2023/03/06 08:15:27;;;;;;;4.20;3.00;;;3.30;99.90;;;;;;5051496;28;20212;-78
2023/03/06 08:17:53;;;;;;;5.77;3.00;;;3.30;99.90;;;;;;5068221;28;20223;-77
2023/03/06 08:20:18;;;;;;;2.93;2.27;;;3.30;99.90;;;;;;5068299;28;20217;-78
2023/03/06 08:22:44;;;;;;;3.33;2.43;;;3.30;99.90;;;;;;5073714;28;20243;-77
2023/03/06 08:25:12;;;;;;;3.87;2.43;;;3.40;99.90;;;;;;5091357;28;20694;-77
2023/03/06 08:27:39;;;;;;;5.67;2.53;;;3.40;99.90;;;;;;5049455;28;20604;-79
2023/03/06 08:30:07;;;;;;;4.07;2.30;;;3.50;99.90;;;;;;5068776;28;20223;-76
2023/03/06 08:32:36;;;;;;;5.37;2.40;;;3.50;99.90;;;;;;5068700;28;20213;-77
2023/03/06 08:35:03;;;;;;;3.00;2.37;;;3.40;99.90;;;;;;5068504;28;20221;-78
2023/03/06 08:37:29;;;;;;;5.40;2.70;;;3.40;99.90;;;;;;5048063;28;20589;-78
2023/03/06 08:39:55;;;;;;;3.47;2.20;;;3.40;99.90;;;;;;5072155;28;20199;-79
2023/03/06 08:42:20;;;;;;;4.63;2.07;;;3.40;99.90;;;;;;5050893;28;20717;-79
2023/03/06 08:44:46;;;;;;;5.23;2.40;;;3.30;99.90;;;;;;5068263;28;20229;-79
2023/03/06 08:47:12;;;;;;;3.30;1.80;;;3.50;99.90;;;;;;5052686;28;20224;-79
2023/03/06 08:49:38;;;;;;;4.87;2.03;;;3.40;99.90;;;;;;5066670;28;20564;-78
2023/03/06 08:52:05;;;;;;;3.53;2.07;;;3.40;99.90;;;;;;5062826;28;20211;-77
2023/03/06 08:54:35;;;;;;;5.33;2.60;;;3.30;99.90;;;;;;5050653;28;20218;-78
2023/03/06 08:57:01;;;;;;;4.43;1.83;;;3.40;99.90;;;;;;5069749;28;20256;-80
2023/03/06 08:59:27;;;;;;;4.10;1.83;;;3.50;99.90;;;;;;5067032;28;20284;-77
2023/03/06 09:01:53;;;;;;;3.30;1.67;;;3.50;99.90;;;;;;5057007;28;20215;-76
2023/03/06 09:04:18;;;;;;;2.73;1.47;;;3.40;99.90;;;;;;5065724;28;20221;-77
2023/03/06 09:06:44;;;;;;;3.53;1.73;;;3.40;99.90;;;;;;5067106;28;20335;-77
2023/03/06 09:09:10;;;;;;;2.77;1.77;;;3.40;99.90;;;;;;5068311;28;20238;-76
2023/03/06 09:11:37;;;;;;;2.53;2.00;;;3.30;99.90;;;;;;5044749;28;20223;-75
2023/03/06 09:14:04;;;;;;;1.60;1.27;;;3.40;99.90;;;;;;5064594;28;20195;-74
2023/03/06 09:16:30;;;;;;;2.93;1.97;;;3.40;99.90;;;;;;5066092;28;20569;-75
2023/03/06 09:18:56;;;;;;;3.60;1.87;;;3.30;99.90;;;;;;5064481;28;20300;-76
2023/03/06 09:21:23;;;;;;;4.13;1.73;;;3.40;99.90;;;;;;5068447;28;20250;-77
2023/03/06 09:23:50;;;;;;;2.10;1.43;;;3.40;99.90;;;;;;5063616;28;20271;-76
2023/03/06 09:26:16;;;;;;;3.57;1.70;;;3.40;99.90;;;;;;5064852;28;20231;-77
2023/03/06 09:28:41;;;;;;;5.07;1.80;;;3.30;99.90;;;;;;5068559;28;20274;-76
2023/03/06 09:31:16;;;;;;;4.77;2.07;;;3.30;99.90;;;;;;5051960;28;20755;-79
2023/03/06 09:33:43;;;;;;;3.13;1.53;;;3.30;99.90;;;;;;5067891;28;20210;-76
2023/03/06 09:36:15;;;;;;;3.57;1.53;;;3.40;99.90;;;;;;5060635;28;20298;-75
2023/03/06 09:38:41;;;;;;;2.97;1.47;;;3.40;99.90;;;;;;5067004;28;20713;-75
2023/03/06 09:41:12;;;;;;;3.40;1.67;;;3.50;99.90;;;;;;5067402;28;20188;-75
2023/03/06 09:43:42;;;;;;;3.40;1.57;;;3.60;99.90;;;;;;5061244;28;20201;-77
2023/03/06 09:46:29;;;;;;;2.73;1.30;;;3.70;99.90;;;;;;5068403;28;20213;-74
2023/03/06 09:49:00;;;;;;;3.00;1.27;;;3.70;99.90;;;;;;5043209;28;20203;-76
2023/03/06 09:51:45;;;;;;;3.37;1.80;;;3.70;99.90;;;;;;5064404;28;20210;-76
2023/03/06 09:54:14;;;;;;;2.57;1.40;;;3.70;99.90;;;;;;5062351;28;20212;-77
2023/03/06 09:56:46;;;;;;;2.87;1.30;;;3.80;99.90;;;;;;5061106;28;20263;-78
2023/03/06 09:59:22;;;;;;;2.67;1.47;;;3.80;99.90;;;;;;5063865;28;20213;-76
2023/03/06 10:02:13;;;;;;;3.03;1.20;;;3.80;99.90;;;;;;5044755;28;20545;-75
2023/03/06 10:04:50;;;;;;;1.80;1.23;;;3.80;99.90;;;;;;5045692;28;20616;-76
2023/03/06 10:07:22;;;;;;;5.07;1.50;;;3.80;99.90;;;;;;5047316;28;20210;-76
2023/03/06 10:10:01;;;;;;;2.40;1.17;;;3.70;99.90;;;;;;5045184;28;20219;-76
2023/03/06 10:12:32;;;;;;;3.20;1.33;;;3.70;99.90;;;;;;5063637;28;20211;-76
2023/03/06 10:15:18;;;;;;;4.50;1.40;;;3.70;99.90;;;;;;5066383;28;20311;-77
2023/03/06 10:17:44;;;;;;;4.27;1.60;;;3.60;99.90;;;;;;5064716;28;20659;-77
2023/03/06 10:20:22;;;;;;;6.57;3.23;;;3.60;99.90;;;;;;5064085;28;20263;-77
2023/03/06 10:23:19;;;;;;;2.93;1.50;;;3.50;99.90;;;;;;5062636;28;20274;-77
2023/03/06 10:26:01;;;;;;;3.67;1.37;;;3.40;99.90;;;;;;5045741;28;20213;-77
2023/03/06 10:28:56;;;;;;;4.37;2.00;;;3.40;99.90;;;;;;5058950;28;20213;-76
2023/03/06 10:31:26;;;;;;;4.10;1.53;;;3.40;99.90;;;;;;5061367;28;20217;-78
2023/03/06 10:33:54;;;;;;;3.67;1.20;;;3.50;99.90;;;;;;5062499;28;20299;-75
2023/03/06 10:36:26;;;;;;;5.00;1.40;;;3.50;99.90;;;;;;5062210;28;20225;-75
2023/03/06 10:38:52;;;;;;;2.37;1.00;;;3.50;99.90;;;;;;5065115;28;20214;-77
2023/03/06 10:41:23;;;;;;;2.47;1.27;;;3.50;99.90;;;;;;5063562;28;20285;-78
2023/03/06 10:44:04;;;;;;;3.40;1.00;;;3.60;99.90;;;;;;5062626;28;20244;-77
2023/03/06 10:49:05;;;;;;;3.00;1.17;;;3.60;99.90;;;;;;5040502;28;20236;-75
2023/03/06 10:51:31;;;;;;;5.33;1.70;;;3.60;99.90;;;;;;5042609;28;20199;-74
2023/03/06 10:54:00;;;;;;;3.43;1.50;;;3.60;99.90;;;;;;5048686;28;20210;-75
2023/03/06 10:56:35;;;;;;;4.20;1.27;;;3.60;99.90;;;;;;5049465;28;20225;-72
2023/03/06 10:59:10;;;;;;;1.77;1.20;;;3.70;99.90;;;;;;5046885;28;20236;-75
2023/03/06 11:01:35;;;;;;;3.20;1.60;;;3.70;99.90;;;;;;5041987;28;20169;-75
2023/03/06 11:04:22;;;;;;;3.60;1.30;;;3.80;99.90;;;;;;5049658;28;20217;-74
2023/03/06 11:07:22;;;;;;;4.73;2.00;;;3.90;99.90;;;;;;5045791;28;20669;-75
2023/03/06 11:09:59;;;;;;;3.53;1.40;;;4.00;99.90;;;;;;5046777;28;20263;-74
2023/03/06 11:12:27;;;;;;;3.27;1.40;;;4.10;99.90;;;;;;5046401;28;20226;-74
2023/03/06 11:15:13;;;;;;;2.37;1.30;;;4.10;99.90;;;;;;5042766;28;20199;-74
2023/03/06 11:17:51;;;;;;;2.50;1.47;;;4.20;99.90;;;;;;5040196;28;20222;-75
2023/03/06 11:20:26;;;;;;;2.57;1.30;;;4.20;99.90;;;;;;5050843;28;20218;-75
2023/03/06 11:22:57;;;;;;;2.43;1.20;;;4.20;99.90;;;;;;5050400;28;20822;-74
2023/03/06 11:25:31;;;;;;;4.33;1.47;;;4.20;99.90;;;;;;5048246;28;20294;-75
2023/03/06 11:28:07;;;;;;;1.50;0.90;;;4.20;99.90;;;;;;5044608;28;20999;-75
2023/03/06 11:30:38;;;;;;;1.97;1.43;;;4.10;99.90;;;;;;5049141;28;20245;-75
2023/03/06 11:33:28;;;;;;;2.17;1.10;;;4.10;99.90;;;;;;5046589;28;20206;-74
2023/03/06 11:36:07;;;;;;;3.33;1.60;;;4.00;99.90;;;;;;5041256;28;20219;-75
2023/03/06 11:38:50;;;;;;;2.60;1.40;;;4.10;99.90;;;;;;5044045;28;20220;-75
2023/03/06 11:41:28;;;;;;;1.60;1.13;;;4.10;99.90;;;;;;5043791;28;20292;-75
2023/03/06 11:43:57;;;;;;;2.33;1.43;;;4.00;99.90;;;;;;5049593;28;20202;-75
2023/03/06 11:46:31;;;;;;;3.43;1.47;;;4.10;99.90;;;;;;5045965;28;20207;-75
2023/03/06 11:49:05;;;;;;;3.80;1.40;;;4.30;99.90;;;;;;5085806;28;20226;-75
2023/03/06 11:51:37;;;;;;;3.53;1.00;;;4.40;99.90;;;;;;5070162;28;20222;-75
2023/03/06 11:54:02;;;;;;;3.40;1.40;;;4.40;99.90;;;;;;5088707;28;21033;-75
2023/03/06 11:56:34;;;;;;;3.33;1.23;;;4.50;99.90;;;;;;5086968;28;20201;-75
2023/03/06 11:59:14;;;;;;;3.80;1.00;;;4.40;99.90;;;;;;5064539;28;20784;-75
2023/03/06 12:01:42;;;;;;;2.37;1.40;;;4.50;99.90;;;;;;5088296;28;20170;-75
2023/03/06 12:04:30;;;;;;;1.70;1.33;;;4.50;99.90;;;;;;5064860;28;20255;-74
2023/03/06 12:07:19;;;;;;;2.77;1.20;;;4.50;99.90;;;;;;5066977;28;20271;-75
2023/03/06 12:10:06;;;;;;;2.63;1.00;;;4.50;99.90;;;;;;5071302;28;20210;-76
2023/03/06 12:12:50;;;;;;;3.83;1.50;;;4.60;99.90;;;;;;5083858;28;20205;-75
2023/03/06 12:15:19;;;;;;;1.20;0.97;;;4.80;99.90;;;;;;5079172;28;20194;-75
2023/03/06 12:17:57;;;;;;;2.53;1.17;;;4.90;99.90;;;;;;5082641;28;20558;-75
2023/03/06 12:20:47;;;;;;;7.27;1.23;;;4.90;99.90;;;;;;5079123;28;20286;-75
2023/03/06 12:23:31;;;;;;;1.93;0.90;;;5.00;99.90;;;;;;5079570;28;20198;-75
2023/03/06 12:26:23;;;;;;;3.50;1.30;;;5.00;99.90;;;;;;5085354;28;20194;-75
2023/03/06 12:28:58;;;;;;;4.73;1.13;;;5.10;99.90;;;;;;5081456;28;20774;-74
2023/03/06 12:31:36;;;;;;;1.50;0.90;;;4.70;99.90;;;;;;5075013;28;20564;-74
2023/03/06 12:34:20;;;;;;;2.90;1.30;;;4.80;99.90;;;;;;5057428;28;20297;-75
2023/03/06 12:36:45;;;;;;;3.43;1.60;;;4.90;99.90;;;;;;5084219;28;20209;-75
2023/03/06 12:39:29;;;;;;;4.17;2.37;;;5.00;99.90;;;;;;5085551;28;20198;-75
2023/03/06 12:42:06;;;;;;;3.30;1.50;;;5.10;99.90;;;;;;5074866;28;20205;-75
2023/03/06 12:44:47;;;;;;;1.70;1.57;;;5.00;99.90;;;;;;5082601;28;20594;-75
2023/03/06 12:47:19;;;;;;;2.37;1.70;;;5.20;99.90;;;;;;5065267;28;20199;-75
2023/03/06 12:49:53;;;;;;;3.23;2.00;;;5.30;99.90;;;;;;5082165;28;20179;-76
2023/03/06 12:52:30;;;;;;;3.77;2.37;;;5.50;99.90;;;;;;5083949;28;20214;-76
2023/03/06 12:54:58;;;;;;;5.77;1.87;;;5.60;99.90;;;;;;5080580;28;20202;-76
2023/03/06 12:57:25;;;;;;;2.73;1.53;;;5.70;99.90;;;;;;5069843;28;20336;-76
2023/03/06 12:59:52;;;;;;;3.57;1.60;;;5.30;99.90;;;;;;5069504;28;20199;-76
2023/03/06 13:02:29;;;;;;;3.73;1.80;;;5.20;99.90;;;;;;5089764;28;20575;-80
2023/03/06 13:05:29;;;;;;;8.10;2.17;;;5.30;99.90;;;;;;5082648;28;20205;-79
2023/03/06 13:08:42;;;;;;;3.33;1.50;;;5.50;99.90;;;;;;5084387;28;20201;-78
2023/03/06 13:11:29;;;;;;;2.83;1.77;;;5.60;99.90;;;;;;5027418;28;20187;-77
2023/03/06 13:13:55;;;;;;;3.83;1.73;;;5.70;99.90;;;;;;5069735;28;20718;-78